Time;durP1;ratioP1;P1;durP2;ratioP2;P2;SDS_P1;SDS_P2;PMS_P1;PMS_P2;Temp;Humidity;BMP_temperature;BMP_pressure;BME280_temperature;BME280_humidity;BME280_pressure;Samples;Min_cycle;Max_cycle;Signal;HPM_P1;HPM_P2
2024/04/02 00:00:44;;;;;;;3.70;1.83;;;8.70;99.90;;;8.52;96.69;97836.72;5013706;28;20455;-70
2024/04/02 00:03:12;;;;;;;3.57;2.20;;;8.70;99.90;;;8.45;96.88;97835.63;5034405;28;20524;-67
2024/04/02 00:05:47;;;;;;;3.33;2.00;;;8.70;99.90;;;8.50;96.56;97846.50;5103396;27;20557;-70
2024/04/02 00:08:13;;;;;;;2.67;2.00;;;8.70;99.90;;;8.45;96.29;97850.47;5087420;28;20486;-68
2024/04/02 00:10:39;;;;;;;3.17;2.10;;;8.70;99.90;;;8.40;96.87;97847.44;5094160;28;20200;-69
2024/04/02 00:13:05;;;;;;;3.30;2.00;;;8.70;99.90;;;8.42;97.05;97850.72;5095062;28;20274;-69
2024/04/02 00:15:31;;;;;;;4.30;2.00;;;8.70;99.90;;;8.34;96.99;97854.81;5072444;28;20495;-69
2024/04/02 00:18:00;;;;;;;3.13;2.00;;;8.60;99.90;;;8.34;96.73;97857.44;5102150;28;20447;-69
2024/04/02 00:20:26;;;;;;;3.63;1.90;;;8.50;99.90;;;8.24;96.70;97860.97;5095661;28;20477;-68
2024/04/02 00:22:52;;;;;;;7.90;2.30;;;8.60;99.90;;;8.26;96.67;97859.03;5097859;28;20450;-68
2024/04/02 00:25:18;;;;;;;4.17;2.10;;;8.60;99.90;;;8.24;96.86;97864.41;5108230;28;20701;-68
2024/04/02 00:27:44;;;;;;;3.17;2.00;;;8.60;99.90;;;8.18;96.86;97866.72;5095457;28;20189;-69
2024/04/02 00:30:13;;;;;;;2.63;1.80;;;8.50;99.90;;;8.17;97.19;97865.09;5088000;28;20189;-70
2024/04/02 00:32:39;;;;;;;4.10;2.00;;;8.50;99.90;;;8.22;97.11;97865.50;5081245;28;20185;-69
2024/04/02 00:35:05;;;;;;;4.53;2.10;;;9.60;99.90;;;8.24;97.12;97876.66;5097693;28;20514;-69
2024/04/02 00:37:30;;;;;;;3.60;2.00;;;8.50;99.90;;;8.27;96.87;97881.63;5095968;28;20674;-68
2024/04/02 00:40:00;;;;;;;3.20;2.10;;;8.60;99.90;;;8.35;95.92;97880.03;5094965;28;20444;-69
2024/04/02 00:42:26;;;;;;;4.30;2.20;;;8.60;99.90;;;8.29;95.67;97874.47;5087886;28;20193;-69
2024/04/02 00:44:51;;;;;;;3.40;2.23;;;8.60;99.90;;;8.31;95.66;97883.03;5093708;28;20474;-68
2024/04/02 00:47:17;;;;;;;3.93;1.93;;;8.60;99.90;;;8.27;96.01;97887.69;5099144;28;20339;-68
2024/04/02 00:49:44;;;;;;;3.37;2.20;;;8.60;99.90;;;8.20;96.44;97876.09;5094061;28;20528;-69
2024/04/02 00:52:09;;;;;;;2.83;1.83;;;8.50;99.90;;;8.25;96.06;97887.00;5091876;28;21043;-69
2024/04/02 00:54:35;;;;;;;3.73;2.00;;;8.50;99.90;;;8.34;95.56;97882.75;5093880;28;20483;-69
2024/04/02 00:57:02;;;;;;;3.43;2.30;;;8.50;99.90;;;8.27;95.13;97886.88;5094060;28;20200;-68
2024/04/02 00:59:29;;;;;;;5.07;2.07;;;8.50;99.90;;;8.30;95.24;97892.66;5081324;28;20545;-69
2024/04/02 01:01:55;;;;;;;2.90;1.97;;;8.50;99.90;;;8.26;95.28;97887.81;5084353;28;20542;-68
2024/04/02 01:04:20;;;;;;;3.90;2.20;;;8.60;99.90;;;8.21;96.07;97893.44;5087339;28;20462;-70
2024/04/02 01:06:49;;;;;;;3.07;2.07;;;8.50;99.90;;;8.23;96.08;97898.53;5090575;28;20937;-70
2024/04/02 01:09:17;;;;;;;5.17;1.90;;;8.50;99.90;;;8.37;95.21;97898.19;5083079;28;20260;-68
2024/04/02 01:11:43;;;;;;;3.30;2.10;;;8.60;99.90;;;8.43;94.88;97902.94;5086188;28;20447;-68
2024/04/02 01:14:09;;;;;;;3.80;2.00;;;8.60;99.90;;;8.38;94.83;97902.50;5097566;28;20446;-70
2024/04/02 01:16:42;;;;;;;3.53;2.17;;;8.60;99.90;;;8.42;94.78;97903.06;5079891;28;20529;-68
2024/04/02 01:19:09;;;;;;;4.57;2.20;;;8.60;99.90;;;8.40;95.09;97903.22;5059514;28;20349;-70
2024/04/02 01:21:34;;;;;;;4.17;2.10;;;8.60;99.90;;;8.20;95.87;97915.34;5079057;28;20527;-69
2024/04/02 01:24:02;;;;;;;3.90;2.30;;;8.50;99.90;;;8.18;96.44;97913.81;5077262;28;20571;-68
2024/04/02 01:26:27;;;;;;;3.77;2.17;;;8.50;99.90;;;8.26;96.93;97925.28;5079319;28;20465;-70
2024/04/02 01:28:57;;;;;;;3.30;2.03;;;8.50;99.90;;;8.26;97.68;97921.81;5070201;28;20451;-67
2024/04/02 01:31:27;;;;;;;3.00;2.10;;;8.50;99.90;;;8.07;99.04;97920.78;5069894;28;20208;-69
2024/04/02 01:33:53;;;;;;;3.20;1.90;;;8.50;99.90;;;8.13;99.80;97916.78;5079589;28;20479;-69
2024/04/02 01:36:19;;;;;;;3.20;2.33;;;8.40;99.90;;;8.18;99.64;97919.03;5071468;28;20453;-70
2024/04/02 01:38:44;;;;;;;2.90;2.00;;;8.40;99.90;;;8.12;99.69;97923.81;5076782;28;20457;-69
2024/04/02 01:41:10;;;;;;;3.30;2.20;;;8.40;99.90;;;7.98;99.88;97928.56;5079654;28;20198;-69
2024/04/02 01:43:36;;;;;;;4.67;2.30;;;8.40;99.90;;;8.00;99.41;97927.47;5066157;28;20719;-69
2024/04/02 01:46:02;;;;;;;3.50;2.10;;;8.30;99.90;;;7.93;99.39;97923.69;5069588;28;20182;-69
2024/04/02 01:48:27;;;;;;;3.33;2.10;;;8.30;99.90;;;8.06;98.73;97939.19;5067953;28;20436;-68
2024/04/02 01:50:53;;;;;;;3.50;2.27;;;8.30;99.90;;;8.10;98.22;97933.59;5074634;28;20231;-68
2024/04/02 01:53:19;;;;;;;3.47;2.37;;;8.40;99.90;;;8.08;98.63;97940.75;5084959;28;20350;-68
2024/04/02 01:55:45;;;;;;;3.53;2.27;;;8.30;99.90;;;7.99;98.03;97941.50;5074945;28;20265;-69
2024/04/02 01:58:11;;;;;;;3.40;2.27;;;8.30;99.90;;;8.01;98.13;97939.59;5074305;28;20530;-69
2024/04/02 02:00:36;;;;;;;3.53;2.10;;;8.30;99.90;;;7.94;97.57;97948.88;5073265;28;20951;-69
2024/04/02 02:03:03;;;;;;;6.00;2.50;;;8.30;99.90;;;8.00;98.25;97956.22;5070685;28;20466;-70
2024/04/02 02:05:30;;;;;;;4.10;2.13;;;8.30;99.90;;;7.95;97.11;97942.72;5076837;28;20259;-69
2024/04/02 02:07:56;;;;;;;6.00;2.57;;;8.30;99.90;;;8.07;96.95;97951.31;5064751;28;20452;-70
2024/04/02 02:10:21;;;;;;;3.63;2.47;;;8.30;99.90;;;8.12;96.82;97957.00;5077801;28;20439;-70
2024/04/02 02:12:47;;;;;;;4.30;2.40;;;8.40;99.90;;;7.92;97.53;97956.03;5069050;28;20656;-69
2024/04/02 02:15:13;;;;;;;5.80;2.40;;;8.30;99.90;;;7.95;97.35;97955.78;5072557;28;20208;-68
2024/04/02 02:17:39;;;;;;;3.60;2.30;;;8.30;99.90;;;8.08;96.77;97956.44;5080443;28;20255;-68
2024/04/02 02:20:05;;;;;;;3.87;2.50;;;8.30;99.90;;;7.97;96.87;97959.09;5076645;28;20201;-69
2024/04/02 02:22:34;;;;;;;4.00;2.37;;;8.30;99.90;;;8.11;96.75;97957.97;5052270;28;20259;-69
2024/04/02 02:25:00;;;;;;;4.90;2.37;;;8.30;99.90;;;8.08;96.35;97959.03;5074906;28;20905;-71
2024/04/02 02:27:25;;;;;;;4.23;2.47;;;8.40;99.90;;;8.11;96.50;97963.19;5069288;28;20441;-68
2024/04/02 02:29:51;;;;;;;4.57;2.53;;;8.30;99.90;;;8.08;95.98;97955.59;5056466;28;20188;-69
2024/04/02 02:32:17;;;;;;;3.00;2.00;;;8.30;99.90;;;7.97;96.64;97959.09;5074147;28;20201;-69
2024/04/02 02:34:43;;;;;;;5.60;2.10;;;8.30;99.90;;;8.01;96.18;97960.50;5072213;28;20217;-70
2024/04/02 02:37:08;;;;;;;3.83;2.00;;;8.30;99.90;;;8.03;96.08;97955.16;5074037;28;20220;-69
2024/04/02 02:39:34;;;;;;;3.00;2.10;;;8.30;99.90;;;7.95;96.61;97962.81;5071619;28;20183;-68
2024/04/02 02:42:00;;;;;;;4.00;2.17;;;8.20;99.90;;;8.03;96.34;97957.75;5072634;28;20308;-70
2024/04/02 02:44:25;;;;;;;4.27;2.30;;;8.30;99.90;;;8.03;95.87;97960.38;5077827;28;20297;-70
2024/04/02 02:46:51;;;;;;;4.93;2.20;;;8.30;99.90;;;8.07;95.57;97967.84;5079841;28;20190;-70
2024/04/02 02:49:17;;;;;;;4.30;2.37;;;8.30;99.90;;;8.10;95.58;97961.50;5065625;28;20200;-69
2024/04/02 02:51:42;;;;;;;3.53;2.20;;;8.40;99.90;;;7.90;96.57;97964.00;5070920;28;20263;-69
2024/04/02 02:54:08;;;;;;;4.93;2.43;;;8.30;99.90;;;7.88;96.78;97965.06;5062533;28;20190;-70
2024/04/02 02:56:34;;;;;;;3.10;2.20;;;8.20;99.90;;;7.94;96.90;97971.59;5076613;28;20200;-69
2024/04/02 02:58:59;;;;;;;4.90;2.20;;;8.30;99.90;;;7.97;96.66;97968.72;5072908;28;20203;-69
2024/04/02 03:01:25;;;;;;;3.10;2.07;;;8.30;99.90;;;8.03;96.50;97973.44;5071931;28;20211;-69
2024/04/02 03:03:51;;;;;;;3.40;2.20;;;8.30;99.90;;;8.06;95.96;97974.03;5064661;28;20228;-70
2024/04/02 03:06:19;;;;;;;3.70;2.27;;;8.30;99.90;;;8.01;96.32;97986.66;5054178;28;20273;-70
2024/04/02 03:08:44;;;;;;;4.07;2.30;;;8.30;99.90;;;7.99;96.75;97979.91;5067797;28;20467;-70
2024/04/02 03:11:10;;;;;;;3.27;2.30;;;8.30;99.90;;;8.15;96.18;97992.53;5071731;28;20455;-69
2024/04/02 03:13:36;;;;;;;4.23;2.20;;;8.30;99.90;;;8.13;96.17;97987.41;5094676;28;20667;-69
2024/04/02 03:16:03;;;;;;;3.30;2.30;;;8.40;99.90;;;8.15;95.69;97987.31;5068737;28;20191;-69
2024/04/02 03:18:30;;;;;;;4.53;2.30;;;8.40;99.90;;;8.16;95.68;97988.94;5078319;28;20188;-70
2024/04/02 03:20:56;;;;;;;3.60;2.10;;;8.40;99.90;;;8.18;95.52;97990.50;5079707;28;20450;-69
2024/04/02 03:23:22;;;;;;;4.33;2.37;;;8.40;99.90;;;8.20;95.34;97988.59;5071674;28;20511;-70
2024/04/02 03:25:55;;;;;;;3.37;2.10;;;8.40;99.90;;;8.24;95.13;98002.25;5068047;28;20474;-70
2024/04/02 03:28:22;;;;;;;4.90;2.00;;;8.50;99.90;;;8.24;94.91;98000.44;5060108;28;20524;-70
2024/04/02 03:30:48;;;;;;;3.83;2.23;;;8.50;99.90;;;8.20;95.27;98008.69;5063574;28;20443;-70
2024/04/02 03:33:14;;;;;;;3.70;2.30;;;8.40;99.90;;;8.07;95.58;98004.47;5067936;28;20746;-70
2024/04/02 03:35:40;;;;;;;3.50;2.37;;;8.40;99.90;;;8.15;95.26;97997.75;5073101;28;20460;-69
2024/04/02 03:38:06;;;;;;;4.20;2.13;;;8.40;99.90;;;8.23;94.55;98004.03;5100223;28;20452;-69
2024/04/02 03:40:41;;;;;;;4.23;2.40;;;8.40;99.90;;;8.17;94.85;98001.91;5068121;28;20678;-69
2024/04/02 03:43:07;;;;;;;3.90;2.40;;;8.40;99.90;;;8.28;94.38;98006.25;5056706;28;20454;-71
2024/04/02 03:45:42;;;;;;;4.27;2.13;;;8.50;99.90;;;8.17;94.65;98009.78;5065631;28;20468;-70
2024/04/02 03:48:09;;;;;;;4.20;2.40;;;8.40;99.90;;;8.17;94.73;98009.78;5077388;28;20444;-70
2024/04/02 03:50:39;;;;;;;4.27;2.30;;;8.50;99.90;;;8.18;95.35;98019.25;5056713;28;20439;-70
2024/04/02 03:53:06;;;;;;;4.70;2.40;;;8.40;99.90;;;8.20;95.21;98011.31;5069085;28;20440;-70
2024/04/02 03:55:38;;;;;;;4.17;2.40;;;8.40;99.90;;;8.16;95.38;98012.50;5079659;28;20454;-70
2024/04/02 03:58:04;;;;;;;3.63;2.10;;;8.40;99.90;;;8.18;96.10;98028.91;5072814;28;20699;-70
2024/04/02 04:00:33;;;;;;;3.17;2.23;;;8.40;99.90;;;8.30;95.29;98030.50;5069757;28;20448;-70
2024/04/02 04:02:58;;;;;;;3.83;2.30;;;8.50;99.90;;;8.26;95.52;98027.31;5069740;28;20451;-70
2024/04/02 04:05:24;;;;;;;3.33;2.13;;;8.50;99.90;;;8.31;95.94;98032.97;5084255;28;20570;-70
2024/04/02 04:07:51;;;;;;;3.43;2.30;;;8.50;99.90;;;8.17;96.65;98032.47;5071507;28;20247;-69
2024/04/02 04:10:21;;;;;;;3.40;2.30;;;8.40;99.90;;;8.17;96.98;98040.34;5065235;28;20186;-68
2024/04/02 04:12:47;;;;;;;5.03;2.17;;;8.40;99.90;;;8.15;97.68;98044.84;5076655;28;20432;-68
2024/04/02 04:15:12;;;;;;;4.17;2.40;;;8.40;99.90;;;8.04;98.64;98041.34;5060658;28;20891;-68
2024/04/02 04:17:38;;;;;;;3.60;2.30;;;8.30;99.90;;;8.11;98.28;98042.47;5072657;28;20209;-68
2024/04/02 04:20:07;;;;;;;4.23;2.40;;;8.30;99.90;;;8.02;98.91;98048.47;5072415;28;20191;-70
2024/04/02 04:22:32;;;;;;;3.93;2.20;;;8.30;99.90;;;7.95;99.76;98043.88;5067236;28;20230;-70
2024/04/02 04:25:01;;;;;;;6.20;2.37;;;8.30;99.90;;;8.02;99.95;98045.03;5071621;28;20988;-70
2024/04/02 04:27:32;;;;;;;4.33;2.60;;;8.30;99.90;;;7.96;99.92;98048.97;5068181;28;20189;-68
2024/04/02 04:29:59;;;;;;;4.47;2.60;;;8.30;99.90;;;8.05;100.00;98063.09;5059224;28;20527;-69
2024/04/02 04:32:25;;;;;;;3.83;2.40;;;8.30;99.90;;;8.05;100.00;98057.84;5068739;28;20509;-69
2024/04/02 04:34:50;;;;;;;3.50;2.40;;;8.30;99.90;;;7.97;100.00;98071.53;5068406;28;20459;-68
2024/04/02 04:37:16;;;;;;;4.00;2.90;;;8.30;99.90;;;7.95;100.00;98073.47;5065023;28;20221;-69
2024/04/02 04:39:42;;;;;;;4.90;2.90;;;8.20;99.90;;;7.80;100.00;98072.06;5060480;28;20217;-69
2024/04/02 04:42:08;;;;;;;5.97;2.80;;;8.20;99.90;;;7.77;100.00;98073.16;5090067;28;20199;-69
2024/04/02 04:44:33;;;;;;;5.10;2.50;;;8.10;99.90;;;7.84;100.00;98079.53;5046466;28;20264;-69
2024/04/02 04:46:59;;;;;;;3.70;2.60;;;8.10;99.90;;;7.88;100.00;98086.19;5067999;28;20561;-69
2024/04/02 04:49:25;;;;;;;3.70;2.63;;;8.30;99.90;;;7.87;100.00;98083.69;5073394;28;20996;-69
2024/04/02 04:51:51;;;;;;;4.63;2.90;;;8.10;99.90;;;7.74;100.00;98091.69;5071749;28;20211;-69
2024/04/02 04:54:16;;;;;;;5.77;2.83;;;8.10;99.90;;;7.75;100.00;98095.13;5079155;28;20201;-70
2024/04/02 04:56:42;;;;;;;4.30;3.00;;;8.10;99.90;;;7.66;100.00;98100.16;5084318;28;20224;-68
2024/04/02 04:59:08;;;;;;;3.73;2.53;;;8.00;99.90;;;7.65;100.00;98095.03;5077010;28;20276;-69
2024/04/02 05:01:33;;;;;;;5.07;2.90;;;8.00;99.90;;;7.72;100.00;98100.59;5073446;28;20204;-68
2024/04/02 05:03:59;;;;;;;3.80;2.83;;;8.00;99.90;;;7.76;100.00;98102.03;5082047;28;20263;-68
2024/04/02 05:06:25;;;;;;;4.17;2.67;;;8.00;99.90;;;7.86;100.00;98109.00;5081682;28;20196;-68
2024/04/02 05:08:50;;;;;;;6.23;2.80;;;8.10;99.90;;;7.82;100.00;98110.22;5067527;28;20811;-68
2024/04/02 05:11:16;;;;;;;3.47;2.80;;;8.10;99.90;;;7.78;100.00;98114.00;5070517;28;20205;-69
2024/04/02 05:13:42;;;;;;;3.87;2.90;;;8.10;99.90;;;7.87;100.00;98108.03;5064032;28;20193;-69
2024/04/02 05:16:08;;;;;;;4.70;2.80;;;8.10;99.90;;;7.82;100.00;98120.69;5068675;28;20196;-68
2024/04/02 05:18:33;;;;;;;4.60;2.80;;;8.10;99.90;;;7.72;100.00;98121.50;5073251;28;20200;-68
2024/04/02 05:20:59;;;;;;;5.43;2.80;;;9.20;99.90;;;7.74;100.00;98125.66;5067981;28;20291;-69
2024/04/02 05:23:26;;;;;;;5.53;2.60;;;8.10;99.90;;;7.76;100.00;98133.41;5071746;28;20272;-66
2024/04/02 05:25:58;;;;;;;5.73;2.80;;;8.00;99.90;;;7.73;100.00;98134.47;5076564;28;20472;-70
2024/04/02 05:28:24;;;;;;;4.30;2.87;;;8.00;99.90;;;7.70;100.00;98132.09;5066222;28;20652;-68
2024/04/02 05:30:50;;;;;;;11.53;2.97;;;8.00;99.90;;;7.68;100.00;98146.22;5064593;28;20451;-68
2024/04/02 05:33:15;;;;;;;5.37;3.00;;;8.00;99.90;;;7.71;100.00;98143.38;5084520;28;20192;-68
2024/04/02 05:35:41;;;;;;;7.47;3.50;;;8.00;99.90;;;7.64;100.00;98137.81;5075231;28;20227;-68
2024/04/02 05:38:07;;;;;;;6.50;3.60;;;8.00;99.90;;;7.71;100.00;98152.06;5098181;28;20193;-68
2024/04/02 05:40:33;;;;;;;12.77;3.83;;;8.00;99.90;;;7.72;100.00;98148.47;5086503;28;20219;-68
2024/04/02 05:42:59;;;;;;;7.40;3.57;;;8.00;99.90;;;7.79;100.00;98160.13;5068861;28;20191;-68
2024/04/02 05:45:24;;;;;;;7.23;3.50;;;8.00;99.90;;;7.72;100.00;98160.72;5062880;28;20478;-68
2024/04/02 05:47:50;;;;;;;12.23;3.40;;;8.00;99.90;;;7.60;100.00;98160.75;5105775;28;20263;-70
2024/04/02 05:50:17;;;;;;;7.90;3.77;;;8.00;99.90;;;7.86;100.00;98163.91;5062714;28;20211;-69
2024/04/02 05:52:44;;;;;;;10.30;4.07;;;8.10;99.90;;;7.75;100.00;98171.75;5070434;28;20447;-69
2024/04/02 05:55:10;;;;;;;7.50;3.70;;;8.10;99.90;;;7.88;100.00;98179.47;5066186;28;20470;-69
2024/04/02 05:57:37;;;;;;;11.53;4.00;;;8.10;99.90;;;8.06;100.00;98177.19;5070160;28;20470;-69
2024/04/02 06:00:08;;;;;;;7.47;3.57;;;8.20;99.90;;;8.03;100.00;98177.44;5053403;28;20467;-69
2024/04/02 06:02:34;;;;;;;6.97;3.30;;;8.20;99.90;;;8.09;100.00;98185.63;5066744;28;20463;-69
2024/04/02 06:04:59;;;;;;;14.27;3.83;;;8.20;99.90;;;8.02;100.00;98197.53;5055081;28;20484;-69
2024/04/02 06:07:25;;;;;;;7.50;3.53;;;8.20;99.90;;;8.04;100.00;98185.16;5067948;28;20197;-70
2024/04/02 06:09:51;;;;;;;9.90;4.07;;;8.30;99.90;;;8.08;100.00;98190.97;5065001;28;20201;-68
2024/04/02 06:12:17;;;;;;;9.57;4.30;;;8.30;99.90;;;8.21;100.00;98196.91;5067465;28;20197;-68
2024/04/02 06:14:42;;;;;;;7.00;3.50;;;8.30;99.90;;;8.13;100.00;98201.91;5073899;28;20301;-68
2024/04/02 06:17:08;;;;;;;10.33;3.70;;;8.30;99.90;;;8.22;100.00;98193.31;5071639;28;20197;-68
2024/04/02 06:19:34;;;;;;;7.40;3.60;;;8.40;99.90;;;8.31;100.00;98199.59;5070410;28;20236;-69
2024/04/02 06:22:00;;;;;;;8.50;3.50;;;8.40;99.90;;;8.33;100.00;98203.78;5083366;28;20202;-68
2024/04/02 06:24:26;;;;;;;11.03;3.60;;;8.50;99.90;;;8.25;100.00;98200.91;5065170;28;20227;-68
2024/04/02 06:26:52;;;;;;;10.03;5.57;;;8.40;99.90;;;8.25;100.00;98195.69;5061221;28;20468;-67
2024/04/02 06:29:18;;;;;;;8.90;3.40;;;8.50;99.90;;;8.20;100.00;98204.88;5066472;28;20459;-68
2024/04/02 06:31:45;;;;;;;9.07;3.77;;;8.50;99.90;;;8.13;100.00;98209.75;5068042;28;20452;-69
2024/04/02 06:34:13;;;;;;;7.27;3.10;;;8.40;99.90;;;8.23;100.00;98208.09;5063752;28;20445;-68
2024/04/02 06:36:39;;;;;;;10.60;3.20;;;8.50;99.90;;;8.19;100.00;98209.25;5067952;28;20453;-69
2024/04/02 06:39:05;;;;;;;8.17;3.60;;;8.50;99.90;;;8.24;100.00;98217.59;5054581;28;20462;-69
2024/04/02 06:41:30;;;;;;;12.17;3.70;;;8.50;99.90;;;8.29;100.00;98225.06;5065275;28;20201;-69
2024/04/02 06:43:56;;;;;;;8.80;3.77;;;8.50;99.90;;;8.22;100.00;98221.25;5076548;28;20567;-68
2024/04/02 06:46:24;;;;;;;8.97;3.27;;;8.50;99.90;;;8.12;100.00;98221.16;5055178;28;20260;-68
2024/04/02 06:48:50;;;;;;;9.90;3.30;;;8.50;99.90;;;8.23;100.00;98226.41;5064122;28;20192;-69
2024/04/02 06:51:16;;;;;;;9.40;3.50;;;8.50;99.90;;;8.19;100.00;98227.56;5061813;28;20444;-67
2024/04/02 06:53:42;;;;;;;10.93;3.73;;;8.50;99.90;;;8.29;100.00;98225.91;5059612;28;20464;-68
2024/04/02 06:56:08;;;;;;;8.70;3.67;;;8.50;99.90;;;8.35;100.00;98235.88;5071827;28;20444;-67
2024/04/02 06:58:34;;;;;;;15.17;3.90;;;8.60;99.90;;;8.46;100.00;98240.28;5072667;28;20191;-67
2024/04/02 07:01:00;;;;;;;9.47;4.00;;;8.60;99.90;;;8.45;100.00;98241.25;5067519;28;20198;-68
2024/04/02 07:03:26;;;;;;;8.63;4.00;;;8.70;99.90;;;8.55;100.00;98247.41;5072170;28;20182;-68
2024/04/02 07:05:53;;;;;;;13.37;4.07;;;8.70;99.90;;;8.42;100.00;98238.88;5065346;28;20581;-70
2024/04/02 07:08:24;;;;;;;7.50;3.87;;;8.70;99.90;;;8.47;100.00;98241.94;5050731;28;20452;-69
2024/04/02 07:11:03;;;;;;;12.27;4.50;;;8.70;99.90;;;8.51;100.00;98245.13;5073127;28;20479;-69
2024/04/02 07:13:30;;;;;;;8.70;4.37;;;8.70;99.90;;;8.45;100.00;98245.63;5073357;28;20428;-69
2024/04/02 07:15:56;;;;;;;9.40;4.67;;;8.70;99.90;;;8.52;100.00;98252.06;5076004;28;20452;-68
2024/04/02 07:18:21;;;;;;;9.30;4.60;;;8.70;99.90;;;8.46;100.00;98247.31;5076160;28;20443;-69
2024/04/02 07:21:16;;;;;;;10.03;4.27;;;8.70;99.90;;;8.38;100.00;98247.03;5067069;28;20273;-70
2024/04/02 07:23:42;;;;;;;11.30;4.20;;;8.70;99.90;;;8.28;100.00;98249.56;5057573;28;20321;-69
2024/04/02 07:26:08;;;;;;;9.90;4.00;;;8.60;99.90;;;8.40;100.00;98243.38;5081115;28;20916;-70
2024/04/02 07:28:33;;;;;;;10.93;4.70;;;8.60;99.90;;;8.53;100.00;98251.09;5072872;28;20205;-70
2024/04/02 07:31:00;;;;;;;10.70;4.40;;;8.70;99.90;;;8.49;100.00;98254.91;5068344;28;20213;-69
2024/04/02 07:33:26;;;;;;;10.00;4.10;;;8.70;99.90;;;8.51;99.21;98256.47;5077249;28;20206;-69
2024/04/02 07:35:58;;;;;;;13.10;4.33;;;8.70;99.90;;;8.55;99.96;98257.03;5064978;28;20797;-69
2024/04/02 07:38:24;;;;;;;13.70;3.73;;;8.70;99.90;;;8.73;99.64;98258.19;5098107;28;20254;-70
2024/04/02 07:40:50;;;;;;;9.17;3.63;;;8.80;99.90;;;8.71;97.13;98261.88;5065995;28;20448;-70
2024/04/02 07:43:16;;;;;;;6.63;2.90;;;8.90;99.90;;;8.82;97.39;98269.66;5063923;28;20571;-69
2024/04/02 07:45:50;;;;;;;13.10;3.50;;;9.00;99.90;;;8.91;96.97;98268.09;5068977;28;20464;-70
2024/04/02 07:48:16;;;;;;;7.40;3.10;;;9.00;99.90;;;8.91;96.65;98273.34;5075227;28;20468;-69
2024/04/02 07:50:42;;;;;;;8.80;3.20;;;9.00;99.90;;;8.76;96.53;98284.13;5066797;28;20477;-70
2024/04/02 07:53:08;;;;;;;6.93;3.30;;;9.00;99.90;;;8.86;94.78;98280.72;5067020;28;20186;-69
2024/04/02 07:55:35;;;;;;;15.37;3.53;;;9.10;99.90;;;8.91;94.16;98273.34;5072862;28;20216;-68
2024/04/02 07:58:01;;;;;;;8.83;3.43;;;9.10;99.90;;;8.94;93.19;98279.16;5098474;28;20826;-68
2024/04/02 08:00:26;;;;;;;9.20;3.00;;;9.10;99.90;;;9.05;92.87;98291.38;5073038;28;20466;-68
2024/04/02 08:02:52;;;;;;;8.00;2.80;;;9.20;99.90;;;9.10;91.54;98286.59;5070818;28;20195;-68
2024/04/02 08:05:18;;;;;;;10.70;3.40;;;9.20;99.90;;;9.32;90.39;98283.03;5070005;28;20307;-67
2024/04/02 08:07:47;;;;;;;7.53;2.83;;;9.30;99.90;;;9.44;89.58;98284.63;5068314;28;20187;-68
2024/04/02 08:10:14;;;;;;;11.83;3.10;;;9.50;99.90;;;9.39;89.30;98283.34;5076877;28;20189;-69
2024/04/02 08:12:41;;;;;;;7.17;3.07;;;9.50;99.90;;;9.28;89.66;98284.25;5096372;28;20448;-69
2024/04/02 08:15:07;;;;;;;8.03;2.97;;;9.50;99.90;;;9.22;90.10;98284.75;5086599;28;20468;-67
2024/04/02 08:17:36;;;;;;;6.57;2.73;;;9.50;99.90;;;9.31;90.51;98283.16;5076817;28;20563;-68
2024/04/02 08:20:06;;;;;;;10.07;2.67;;;9.50;99.90;;;9.36;90.49;98288.84;5075067;28;20481;-68
2024/04/02 08:22:32;;;;;;;11.53;3.00;;;9.50;99.90;;;9.49;91.03;98285.09;5073375;28;20512;-69
2024/04/02 08:24:57;;;;;;;7.33;2.73;;;9.60;99.90;;;9.55;90.46;98293.38;5074120;28;20471;-67
2024/04/02 08:27:23;;;;;;;9.60;4.27;;;9.60;99.90;;;9.66;88.32;98286.28;5100521;28;20475;-68
2024/04/02 08:29:49;;;;;;;9.53;2.80;;;9.70;99.90;;;10.02;87.76;98291.97;5071849;28;20185;-67
2024/04/02 08:32:18;;;;;;;10.87;3.03;;;9.80;99.90;;;10.21;85.55;98289.44;5074093;28;20212;-69
2024/04/02 08:34:43;;;;;;;8.60;2.80;;;10.00;99.90;;;10.44;86.07;98286.66;5072906;28;20295;-67
2024/04/02 08:37:09;;;;;;;18.63;3.33;;;10.20;99.90;;;10.28;84.33;98286.31;5081466;28;20449;-68
2024/04/02 08:39:35;;;;;;;9.60;2.63;;;10.30;99.90;;;10.16;83.87;98296.88;5081395;28;20208;-67
2024/04/02 08:42:03;;;;;;;7.43;2.50;;;10.30;99.90;;;10.23;82.09;98283.22;5075882;28;20326;-68
2024/04/02 08:44:32;;;;;;;6.10;2.60;;;10.40;99.90;;;10.37;82.08;98296.00;5071362;28;20220;-67
2024/04/02 08:46:59;;;;;;;6.63;2.60;;;10.40;99.90;;;10.25;82.33;98287.38;5075026;28;21223;-67
2024/04/02 08:49:25;;;;;;;5.20;2.50;;;10.40;99.90;;;10.24;81.66;98290.94;5078820;28;20448;-69
2024/04/02 08:51:52;;;;;;;11.97;3.17;;;10.40;99.90;;;10.29;81.80;98293.22;5075468;28;20470;-68
2024/04/02 08:54:19;;;;;;;18.23;3.07;;;10.40;99.90;;;10.42;81.87;98309.56;5075890;28;20470;-67
2024/04/02 08:56:46;;;;;;;6.77;2.33;;;10.50;99.90;;;10.54;81.72;98305.88;5077920;28;21208;-68
2024/04/02 08:59:12;;;;;;;6.80;2.67;;;10.60;99.90;;;10.48;81.25;98308.22;5065448;28;20465;-69
2024/04/02 09:01:38;;;;;;;10.77;2.83;;;10.60;99.90;;;10.46;80.90;98320.63;5075361;28;20505;-69
2024/04/02 09:04:04;;;;;;;5.13;2.40;;;10.50;99.90;;;10.24;80.37;98324.25;5069227;28;20506;-66
2024/04/02 09:06:30;;;;;;;8.77;2.67;;;10.50;99.90;;;10.29;81.68;98320.31;5071111;28;20455;-68
2024/04/02 09:08:56;;;;;;;5.60;2.70;;;10.50;99.90;;;10.63;81.12;98320.81;5075003;28;20461;-67
2024/04/02 09:11:23;;;;;;;9.60;2.50;;;10.60;99.90;;;10.83;79.03;98336.63;5072478;28;20203;-67
2024/04/02 09:13:49;;;;;;;6.50;2.60;;;10.70;99.90;;;11.00;76.72;98314.94;5071786;28;21083;-70
2024/04/02 09:16:14;;;;;;;7.37;2.60;;;10.90;99.90;;;11.29;76.17;98319.38;5069803;28;20441;-66
2024/04/02 09:18:45;;;;;;;5.80;2.47;;;11.10;99.90;;;11.60;75.36;98317.38;5072114;28;20184;-69
2024/04/02 09:21:13;;;;;;;8.90;2.47;;;11.40;99.90;;;11.59;74.39;98319.19;5071383;28;20174;-69
2024/04/02 09:23:38;;;;;;;7.90;2.80;;;11.50;99.90;;;11.30;74.56;98318.41;5069015;28;21085;-68
2024/04/02 09:26:08;;;;;;;7.00;2.73;;;11.40;99.90;;;11.23;75.12;98327.81;5086145;28;20483;-68
2024/04/02 09:28:40;;;;;;;7.87;2.50;;;11.40;99.90;;;10.88;74.05;98329.19;5073668;28;20185;-68
2024/04/02 09:31:08;;;;;;;14.20;2.80;;;11.20;99.90;;;10.60;75.46;98326.34;5077315;28;20977;-68
2024/04/02 09:33:38;;;;;;;7.00;2.73;;;11.00;99.90;;;10.57;76.86;98329.25;5082871;28;20476;-69
2024/04/02 09:36:05;;;;;;;9.10;2.47;;;10.90;99.90;;;10.58;77.94;98332.69;5070195;28;20447;-68
2024/04/02 09:38:40;;;;;;;13.57;2.77;;;10.80;99.90;;;10.62;78.61;98337.56;5066686;28;20453;-68
2024/04/02 09:41:06;;;;;;;5.70;2.60;;;10.70;99.90;;;10.70;78.05;98344.75;5082936;28;20453;-69
2024/04/02 09:43:36;;;;;;;7.03;3.03;;;10.80;99.90;;;10.69;78.64;98350.97;5059340;28;20458;-68
2024/04/02 09:46:03;;;;;;;9.67;3.00;;;10.90;99.90;;;10.34;80.95;98351.38;5096974;28;20566;-68
2024/04/02 09:48:33;;;;;;;9.80;3.23;;;10.70;99.90;;;10.06;84.36;98356.38;5073079;28;20464;-69
2024/04/02 09:51:01;;;;;;;11.23;3.47;;;10.40;99.90;;;10.17;86.62;98351.03;5073447;28;20460;-69
2024/04/02 09:53:28;;;;;;;10.17;3.40;;;10.40;99.90;;;9.97;87.92;98351.91;5059524;28;20508;-69
2024/04/02 09:55:55;;;;;;;9.10;3.37;;;10.30;99.90;;;9.98;88.19;98337.81;5086823;28;20450;-69
2024/04/02 09:58:22;;;;;;;11.23;3.30;;;10.20;99.90;;;10.07;89.52;98346.69;5084627;28;20447;-69
2024/04/02 10:00:59;;;;;;;10.17;3.70;;;10.20;99.90;;;9.97;90.94;98338.78;5097366;28;20458;-69
2024/04/02 10:03:29;;;;;;;10.67;3.23;;;10.20;99.90;;;10.07;89.56;98337.03;5081324;28;20450;-69
2024/04/02 10:06:03;;;;;;;12.67;4.10;;;10.20;99.90;;;10.38;88.16;98326.56;5071382;28;20483;-69
2024/04/02 10:08:31;;;;;;;7.90;3.07;;;10.40;99.90;;;10.80;88.77;98329.00;5071426;28;20470;-69
2024/04/02 10:10:57;;;;;;;9.30;2.70;;;10.60;99.90;;;10.72;86.96;98332.31;5076482;28;20452;-69
2024/04/02 10:13:34;;;;;;;5.73;2.43;;;10.70;99.90;;;10.57;84.51;98338.91;5068341;28;20454;-69
2024/04/02 10:16:00;;;;;;;7.37;2.70;;;10.70;99.90;;;10.62;86.14;98334.94;5073493;28;20294;-69
2024/04/02 10:18:26;;;;;;;6.60;2.50;;;10.70;99.90;;;10.80;85.37;98334.25;5079641;28;20447;-69
2024/04/02 10:20:56;;;;;;;9.43;2.97;;;10.80;99.90;;;11.13;84.75;98335.69;5070295;28;20463;-69
2024/04/02 10:23:24;;;;;;;10.20;3.33;;;11.00;99.90;;;11.42;84.21;98329.63;5073996;28;20194;-69
2024/04/02 10:25:49;;;;;;;11.77;2.90;;;11.10;99.90;;;12.00;81.30;98324.25;5073660;28;20493;-69